Global 1200 — C6DJ2 — position and weather

sailwx.info

Track history (hours):
 
Tides and Currents Weather Stations Pressure Air Temp Water Temp Dewpoint Dewpoint Depression Visibility Wind Speed Wind Dir Waves Ship Positions

Global 1200

Last reported at 2018-Jan-12 15:00 UTC. Time now 2018-Apr-24 05:06 UTC.
Position N 50°13' W 000°30'.
Warning: this ship's position is months out of date.

Length 162 m; draft 6.7 m.

Type: Ship. MMSI: 311000689.

Date/timePositionNaut miles runAvg speedWind from/ knotsBaromVisibWave heightAir tempDewpointWater temp
2018-Jan-12 15:00N 50°13' W 000°30'712.3
2018-Jan-12 14:28N 50°11' W 000°40'511.9
2018-Jan-12 14:00N 50°10' W 000°49'611.6
2018-Jan-12 13:29N 50°08' W 000°58'511.0
2018-Jan-12 13:00N 50°07' W 001°06'510.7
2018-Jan-12 12:30N 50°05' W 001°14'510.3
2018-Jan-12 12:01N 50°04' W 001°21'5 9.9
2018-Jan-12 11:31N 50°03' W 001°29'5 9.7
2018-Jan-12 11:00N 50°01' W 001°36'5 9.4
2018-Jan-12 10:30N 50°00' W 001°43'5 9.5
2018-Jan-12 10:00N 49°59' W 001°51'5 9.6
2018-Jan-12 09:31N 49°58' W 001°58'5 9.9
2018-Jan-12 09:01N 49°57' W 002°05'810.7
2018-Jan-12 08:15N 49°55' W 002°18'1711.5
2018-Jan-12 06:49N 49°50' W 002°42'412.1
2018-Jan-12 06:28N 49°49' W 002°48'10512.3
2018-Jan-11 21:57N 48°57' W 005°08'511.7
2018-Jan-11 21:30N 48°55' W 005°15'611.7
2018-Jan-11 21:00N 48°52' W 005°22'611.5
2018-Jan-11 20:30N 48°48' W 005°30'20 7.5
2018-Jan-11 17:49N 48°28' W 005°32'3 9.4
2018-Jan-11 17:30N 48°26' W 005°28'8 8.8
2018-Jan-11 16:38N 48°21' W 005°20'2 8.5
2018-Jan-11 16:22N 48°20' W 005°18'4 8.6
2018-Jan-11 15:54N 48°18' W 005°12'4 8.6
2018-Jan-11 15:30N 48°17' W 005°07'4 8.8
2018-Jan-11 15:00N 48°16' W 005°01'4 8.8
2018-Jan-11 14:30N 48°14' W 004°55'5 9.1
2018-Jan-11 14:00N 48°16' W 004°48'4 7.8
2018-Jan-11 13:30N 48°18' W 004°43'5 9.4
2018-Jan-11 13:00N 48°20' W 004°37'510.6
2018-Jan-11 12:30N 48°22' W 004°29'2 3.8
2018-Jan-11 11:59N 48°23' W 004°27'0 0.0
2018-Jan-11 11:29N 48°23' W 004°27'0 0.0
2018-Jan-11 10:59N 48°23' W 004°27'0 0.0
2018-Jan-11 10:29N 48°23' W 004°27'0 0.0
2018-Jan-11 09:59N 48°23' W 004°27'0 0.0
2018-Jan-11 09:29N 48°23' W 004°27'0 0.0
2018-Jan-11 08:59N 48°23' W 004°27'0 0.0
2018-Jan-11 08:29N 48°23' W 004°27'0 0.0
2018-Jan-11 07:59N 48°23' W 004°27'0 0.0
2018-Jan-11 07:29N 48°23' W 004°27'0 0.0
2018-Jan-11 06:59N 48°23' W 004°27'0 0.0
2018-Jan-11 06:29N 48°23' W 004°27'0 0.0
2018-Jan-11 05:59N 48°23' W 004°27'0 0.0
2018-Jan-11 05:29N 48°23' W 004°27'0 0.0
2018-Jan-11 04:59N 48°23' W 004°27'0 0.0
2018-Jan-11 04:29N 48°23' W 004°27'0 0.0
2018-Jan-11 03:59N 48°23' W 004°27'0 0.0
2018-Jan-11 03:29N 48°23' W 004°27'0 0.0
2018-Jan-11 02:59N 48°23' W 004°27'0 0.0
2018-Jan-11 02:29N 48°23' W 004°27'0 0.0
2018-Jan-11 01:59N 48°23' W 004°27'0 0.0
2018-Jan-11 01:29N 48°23' W 004°27'0 0.0
2018-Jan-11 00:59N 48°23' W 004°27'0 0.0
2018-Jan-11 00:29N 48°23' W 004°27'0 0.0
2018-Jan-10 23:59N 48°23' W 004°27'0 0.0
2018-Jan-10 23:26N 48°23' W 004°27'0 0.0
2018-Jan-10 22:59N 48°23' W 004°27'0 0.0
2018-Jan-10 22:29N 48°23' W 004°27'0 0.0
2018-Jan-10 21:59N 48°23' W 004°27'0 0.0
2018-Jan-10 21:29N 48°23' W 004°27'0 0.0
2018-Jan-10 20:59N 48°23' W 004°27'0 0.0
2018-Jan-10 20:29N 48°23' W 004°27'0 0.0
2018-Jan-10 19:59N 48°23' W 004°27'0 0.0
2018-Jan-10 19:29N 48°23' W 004°27'0 0.0
2018-Jan-10 18:59N 48°23' W 004°27'0 0.0
2018-Jan-10 18:29N 48°23' W 004°27'0 0.0
2018-Jan-10 17:59N 48°23' W 004°27'0 0.0
2018-Jan-10 17:29N 48°23' W 004°27'0 0.0
2018-Jan-10 16:59N 48°23' W 004°27'0 0.0
2018-Jan-10 16:29N 48°23' W 004°27'0 0.0
2018-Jan-10 15:59N 48°23' W 004°27'0 0.0
2018-Jan-10 15:29N 48°23' W 004°27'0 0.0
2018-Jan-10 15:00N 48°23' W 004°27'0 0.0
2018-Jan-10 14:29N 48°23' W 004°27'0 0.0
2018-Jan-10 13:59N 48°23' W 004°27'0 0.0
2018-Jan-10 13:29N 48°23' W 004°27'0 0.0
2018-Jan-10 12:59N 48°23' W 004°27'0 0.0
2018-Jan-10 12:29N 48°23' W 004°27'0 0.0
2018-Jan-10 11:59N 48°23' W 004°27'0 0.0
2018-Jan-10 11:29N 48°23' W 004°27'0 0.0
2018-Jan-10 10:59N 48°23' W 004°27'0 0.0
2018-Jan-10 10:29N 48°23' W 004°27'0 0.0
2018-Jan-10 09:59N 48°23' W 004°27'0 0.0
2018-Jan-10 09:29N 48°23' W 004°27'0 0.0
2018-Jan-10 08:59N 48°23' W 004°27'0 0.0
2018-Jan-10 08:29N 48°23' W 004°27'0 0.0
2018-Jan-10 07:59N 48°23' W 004°27'0 0.0
2018-Jan-10 07:29N 48°23' W 004°27'0 0.0
2018-Jan-10 06:59N 48°23' W 004°27'0 0.0
2018-Jan-10 06:29N 48°23' W 004°27'0 0.0
2018-Jan-10 05:59N 48°23' W 004°27'0 0.0
2018-Jan-10 05:29N 48°23' W 004°27'0 0.0
2018-Jan-10 04:59N 48°23' W 004°27'0 0.0
2018-Jan-10 04:29N 48°23' W 004°27'0 0.0
2018-Jan-10 03:59N 48°23' W 004°27'0 0.0
2018-Jan-10 03:29N 48°23' W 004°27'0 0.0
2018-Jan-10 02:59N 48°23' W 004°27'0 0.0
2018-Jan-10 02:29N 48°23' W 004°27'0 0.0
2018-Jan-10 01:59N 48°23' W 004°27'0 0.0
2018-Jan-10 01:29N 48°23' W 004°27'0 0.0
2018-Jan-10 00:59N 48°23' W 004°27'0 0.0
2018-Jan-10 00:29N 48°23' W 004°27'0 0.0
2018-Jan-09 23:59N 48°23' W 004°27'0 0.0
2018-Jan-09 23:29N 48°23' W 004°27'0 0.0
2018-Jan-09 22:59N 48°23' W 004°27'0 0.0
2018-Jan-09 22:29N 48°23' W 004°27'0 0.0
2018-Jan-09 21:59N 48°23' W 004°27'0 0.0
2018-Jan-09 21:29N 48°23' W 004°27'0 0.0
2018-Jan-09 20:59N 48°23' W 004°27'0 0.0
2018-Jan-09 20:29N 48°23' W 004°27'0 0.0
2018-Jan-09 19:59N 48°23' W 004°27'0 0.0
2018-Jan-09 19:29N 48°23' W 004°27'0 0.0
2018-Jan-09 18:59N 48°23' W 004°27'0 0.0
2018-Jan-09 18:29N 48°23' W 004°27'0 0.0
2018-Jan-09 17:59N 48°23' W 004°27'0 0.0
2018-Jan-09 17:29N 48°23' W 004°27'0 0.0
2018-Jan-09 16:59N 48°23' W 004°27'0 0.0
2018-Jan-09 16:29N 48°23' W 004°27'0 0.0
2018-Jan-09 15:59N 48°23' W 004°27'0 0.0
2018-Jan-09 15:30N 48°23' W 004°27'0 0.0
2018-Jan-09 15:01N 48°23' W 004°27'0 0.0
2018-Jan-09 14:30N 48°23' W 004°27'0 0.0
2018-Jan-09 14:00N 48°23' W 004°27'0 0.0
2018-Jan-09 13:30N 48°23' W 004°27'0 0.0
2018-Jan-09 13:00N 48°23' W 004°27'0 0.0
2018-Jan-09 12:30N 48°23' W 004°27'0 0.0
2018-Jan-09 12:01N 48°23' W 004°27'0 0.0
2018-Jan-09 11:30N 48°23' W 004°27'0 0.0
2018-Jan-09 11:00N 48°23' W 004°27'0 0.0
2018-Jan-09 10:30N 48°23' W 004°27'0 0.0
2018-Jan-09 10:00N 48°23' W 004°27'0 0.3
2018-Jan-09 09:30N 48°23' W 004°27'2 3.1
2018-Jan-09 09:00N 48°22' W 004°29'4 8.5
2018-Jan-09 08:30N 48°20' W 004°35'510.0
2018-Jan-09 08:00N 48°18' W 004°42'4 8.1
2018-Jan-09 07:30N 48°17' W 004°47'3 6.8
2018-Jan-09 07:00N 48°15' W 004°52'3 5.7
2018-Jan-09 06:30N 48°14' W 004°56'3 6.4
2018-Jan-09 06:00N 48°13' W 005°00'4 7.1
2018-Jan-09 05:30N 48°12' W 005°05'4 7.2
2018-Jan-09 05:00N 48°10' W 005°10'4 7.7
2018-Jan-09 04:29N 48°09' W 005°16'7 7.9
2018-Jan-09 03:33N 48°06' W 005°26'  
2018-Jan-06 04:32N 39°31' W 009°50'1 8.0
2018-Jan-06 04:22N 39°30' W 009°50'3 8.2
2018-Jan-06 04:00N 39°27' W 009°50'5 8.4
2018-Jan-06 03:27N 39°22' W 009°51'4 8.5
2018-Jan-06 03:00N 39°19' W 009°51'4 8.3
2018-Jan-06 02:30N 39°14' W 009°51'4 7.9
2018-Jan-06 02:00N 39°10' W 009°51'4 7.7
2018-Jan-06 01:30N 39°07' W 009°51'4 7.3
2018-Jan-06 01:00N 39°03' W 009°51'4 8.2
2018-Jan-06 00:30N 38°59' W 009°51'4 8.1
2018-Jan-06 00:00N 38°55' W 009°51'4 7.7
2018-Jan-05 23:30N 38°51' W 009°52'4 8.0
2018-Jan-05 23:00N 38°47' W 009°52'4 8.4
2018-Jan-05 22:30N 38°43' W 009°52'4 8.7
2018-Jan-05 22:00N 38°39' W 009°51'4 8.3
2018-Jan-05 21:30N 38°35' W 009°49'4 8.6
2018-Jan-05 21:00N 38°31' W 009°47'12 9.0
2018-Jan-05 19:41N 38°19' W 009°44'2 9.5
2018-Jan-05 19:29N 38°17' W 009°43'5 9.3
2018-Jan-05 18:59N 38°13' W 009°42'6 9.6
2018-Jan-05 18:20N 38°07' W 009°40'3 9.8
2018-Jan-05 18:00N 38°03' W 009°40'5 9.5
2018-Jan-05 17:30N 37°59' W 009°38'9 8.9
2018-Jan-05 16:29N 37°50' W 009°35'4 8.7
2018-Jan-05 16:00N 37°46' W 009°34'5 9.5
2018-Jan-05 15:30N 37°41' W 009°33'218 9.1
2018-Jan-04 15:31N 35°59' W 005°32'0 9.8
2018-Jan-04 15:30N 35°59' W 005°32'5 8.8
2018-Jan-04 14:59N 36°01' W 005°26'4 7.6
2018-Jan-04 14:30N 36°04' W 005°24'  
Track history (hours):
 
Tides and Currents Weather Stations Pressure Air Temp Water Temp Dewpoint Dewpoint Depression Visibility Wind Speed Wind Dir Waves Ship Positions

Global 1200

Last reported at 2018-Jan-12 15:00 UTC. Time now 2018-Apr-24 05:06 UTC.
Position N 50°13' W 000°30'.
Warning: this ship's position is months out of date.

Length 162 m; draft 6.7 m.

Type: Ship. MMSI: 311000689.

Date/timePositionNaut miles runAvg speedWind from/ knotsBaromVisibWave heightAir tempDewpointWater temp
2018-Jan-12 15:00N 50°13' W 000°30'712.3
2018-Jan-12 14:28N 50°11' W 000°40'511.9
2018-Jan-12 14:00N 50°10' W 000°49'611.6
2018-Jan-12 13:29N 50°08' W 000°58'511.0
2018-Jan-12 13:00N 50°07' W 001°06'510.7
2018-Jan-12 12:30N 50°05' W 001°14'510.3
2018-Jan-12 12:01N 50°04' W 001°21'5 9.9
2018-Jan-12 11:31N 50°03' W 001°29'5 9.7
2018-Jan-12 11:00N 50°01' W 001°36'5 9.4
2018-Jan-12 10:30N 50°00' W 001°43'5 9.5
2018-Jan-12 10:00N 49°59' W 001°51'5 9.6
2018-Jan-12 09:31N 49°58' W 001°58'5 9.9
2018-Jan-12 09:01N 49°57' W 002°05'810.7
2018-Jan-12 08:15N 49°55' W 002°18'1711.5
2018-Jan-12 06:49N 49°50' W 002°42'412.1
2018-Jan-12 06:28N 49°49' W 002°48'10512.3
2018-Jan-11 21:57N 48°57' W 005°08'511.7
2018-Jan-11 21:30N 48°55' W 005°15'611.7
2018-Jan-11 21:00N 48°52' W 005°22'611.5
2018-Jan-11 20:30N 48°48' W 005°30'20 7.5
2018-Jan-11 17:49N 48°28' W 005°32'3 9.4
2018-Jan-11 17:30N 48°26' W 005°28'8 8.8
2018-Jan-11 16:38N 48°21' W 005°20'2 8.5
2018-Jan-11 16:22N 48°20' W 005°18'4 8.6
2018-Jan-11 15:54N 48°18' W 005°12'4 8.6
2018-Jan-11 15:30N 48°17' W 005°07'4 8.8
2018-Jan-11 15:00N 48°16' W 005°01'4 8.8
2018-Jan-11 14:30N 48°14' W 004°55'5 9.1
2018-Jan-11 14:00N 48°16' W 004°48'4 7.8
2018-Jan-11 13:30N 48°18' W 004°43'5 9.4
2018-Jan-11 13:00N 48°20' W 004°37'510.6
2018-Jan-11 12:30N 48°22' W 004°29'2 3.8
2018-Jan-11 11:59N 48°23' W 004°27'0 0.0
2018-Jan-11 11:29N 48°23' W 004°27'0 0.0
2018-Jan-11 10:59N 48°23' W 004°27'0 0.0
2018-Jan-11 10:29N 48°23' W 004°27'0 0.0
2018-Jan-11 09:59N 48°23' W 004°27'0 0.0
2018-Jan-11 09:29N 48°23' W 004°27'0 0.0
2018-Jan-11 08:59N 48°23' W 004°27'0 0.0
2018-Jan-11 08:29N 48°23' W 004°27'0 0.0
2018-Jan-11 07:59N 48°23' W 004°27'0 0.0
2018-Jan-11 07:29N 48°23' W 004°27'0 0.0
2018-Jan-11 06:59N 48°23' W 004°27'0 0.0
2018-Jan-11 06:29N 48°23' W 004°27'0 0.0
2018-Jan-11 05:59N 48°23' W 004°27'0 0.0
2018-Jan-11 05:29N 48°23' W 004°27'0 0.0
2018-Jan-11 04:59N 48°23' W 004°27'0 0.0
2018-Jan-11 04:29N 48°23' W 004°27'0 0.0
2018-Jan-11 03:59N 48°23' W 004°27'0 0.0
2018-Jan-11 03:29N 48°23' W 004°27'0 0.0
2018-Jan-11 02:59N 48°23' W 004°27'0 0.0
2018-Jan-11 02:29N 48°23' W 004°27'0 0.0
2018-Jan-11 01:59N 48°23' W 004°27'0 0.0
2018-Jan-11 01:29N 48°23' W 004°27'0 0.0
2018-Jan-11 00:59N 48°23' W 004°27'0 0.0
2018-Jan-11 00:29N 48°23' W 004°27'0 0.0
2018-Jan-10 23:59N 48°23' W 004°27'0 0.0
2018-Jan-10 23:26N 48°23' W 004°27'0 0.0
2018-Jan-10 22:59N 48°23' W 004°27'0 0.0
2018-Jan-10 22:29N 48°23' W 004°27'0 0.0
2018-Jan-10 21:59N 48°23' W 004°27'0 0.0
2018-Jan-10 21:29N 48°23' W 004°27'0 0.0
2018-Jan-10 20:59N 48°23' W 004°27'0 0.0
2018-Jan-10 20:29N 48°23' W 004°27'0 0.0
2018-Jan-10 19:59N 48°23' W 004°27'0 0.0
2018-Jan-10 19:29N 48°23' W 004°27'0 0.0
2018-Jan-10 18:59N 48°23' W 004°27'0 0.0
2018-Jan-10 18:29N 48°23' W 004°27'0 0.0
2018-Jan-10 17:59N 48°23' W 004°27'0 0.0
2018-Jan-10 17:29N 48°23' W 004°27'0 0.0
2018-Jan-10 16:59N 48°23' W 004°27'0 0.0
2018-Jan-10 16:29N 48°23' W 004°27'0 0.0
2018-Jan-10 15:59N 48°23' W 004°27'0 0.0
2018-Jan-10 15:29N 48°23' W 004°27'0 0.0
2018-Jan-10 15:00N 48°23' W 004°27'0 0.0
2018-Jan-10 14:29N 48°23' W 004°27'0 0.0
2018-Jan-10 13:59N 48°23' W 004°27'0 0.0
2018-Jan-10 13:29N 48°23' W 004°27'0 0.0
2018-Jan-10 12:59N 48°23' W 004°27'0 0.0
2018-Jan-10 12:29N 48°23' W 004°27'0 0.0
2018-Jan-10 11:59N 48°23' W 004°27'0 0.0
2018-Jan-10 11:29N 48°23' W 004°27'0 0.0
2018-Jan-10 10:59N 48°23' W 004°27'0 0.0
2018-Jan-10 10:29N 48°23' W 004°27'0 0.0
2018-Jan-10 09:59N 48°23' W 004°27'0 0.0
2018-Jan-10 09:29N 48°23' W 004°27'0 0.0
2018-Jan-10 08:59N 48°23' W 004°27'0 0.0
2018-Jan-10 08:29N 48°23' W 004°27'0 0.0
2018-Jan-10 07:59N 48°23' W 004°27'0 0.0
2018-Jan-10 07:29N 48°23' W 004°27'0 0.0
2018-Jan-10 06:59N 48°23' W 004°27'0 0.0
2018-Jan-10 06:29N 48°23' W 004°27'0 0.0
2018-Jan-10 05:59N 48°23' W 004°27'0 0.0
2018-Jan-10 05:29N 48°23' W 004°27'0 0.0
2018-Jan-10 04:59N 48°23' W 004°27'0 0.0
2018-Jan-10 04:29N 48°23' W 004°27'0 0.0
2018-Jan-10 03:59N 48°23' W 004°27'0 0.0
2018-Jan-10 03:29N 48°23' W 004°27'0 0.0
2018-Jan-10 02:59N 48°23' W 004°27'0 0.0
2018-Jan-10 02:29N 48°23' W 004°27'0 0.0
2018-Jan-10 01:59N 48°23' W 004°27'0 0.0
2018-Jan-10 01:29N 48°23' W 004°27'0 0.0
2018-Jan-10 00:59N 48°23' W 004°27'0 0.0
2018-Jan-10 00:29N 48°23' W 004°27'0 0.0
2018-Jan-09 23:59N 48°23' W 004°27'0 0.0
2018-Jan-09 23:29N 48°23' W 004°27'0 0.0
2018-Jan-09 22:59N 48°23' W 004°27'0 0.0
2018-Jan-09 22:29N 48°23' W 004°27'0 0.0
2018-Jan-09 21:59N 48°23' W 004°27'0 0.0
2018-Jan-09 21:29N 48°23' W 004°27'0 0.0
2018-Jan-09 20:59N 48°23' W 004°27'0 0.0
2018-Jan-09 20:29N 48°23' W 004°27'0 0.0
2018-Jan-09 19:59N 48°23' W 004°27'0 0.0
2018-Jan-09 19:29N 48°23' W 004°27'0 0.0
2018-Jan-09 18:59N 48°23' W 004°27'0 0.0
2018-Jan-09 18:29N 48°23' W 004°27'0 0.0
2018-Jan-09 17:59N 48°23' W 004°27'0 0.0
2018-Jan-09 17:29N 48°23' W 004°27'0 0.0
2018-Jan-09 16:59N 48°23' W 004°27'0 0.0
2018-Jan-09 16:29N 48°23' W 004°27'0 0.0
2018-Jan-09 15:59N 48°23' W 004°27'0 0.0
2018-Jan-09 15:30N 48°23' W 004°27'0 0.0
2018-Jan-09 15:01N 48°23' W 004°27'0 0.0
2018-Jan-09 14:30N 48°23' W 004°27'0 0.0
2018-Jan-09 14:00N 48°23' W 004°27'0 0.0
2018-Jan-09 13:30N 48°23' W 004°27'0 0.0
2018-Jan-09 13:00N 48°23' W 004°27'0 0.0
2018-Jan-09 12:30N 48°23' W 004°27'0 0.0
2018-Jan-09 12:01N 48°23' W 004°27'0 0.0
2018-Jan-09 11:30N 48°23' W 004°27'0 0.0
2018-Jan-09 11:00N 48°23' W 004°27'0 0.0
2018-Jan-09 10:30N 48°23' W 004°27'0 0.0
2018-Jan-09 10:00N 48°23' W 004°27'0 0.3
2018-Jan-09 09:30N 48°23' W 004°27'2 3.1
2018-Jan-09 09:00N 48°22' W 004°29'4 8.5
2018-Jan-09 08:30N 48°20' W 004°35'510.0
2018-Jan-09 08:00N 48°18' W 004°42'4 8.1
2018-Jan-09 07:30N 48°17' W 004°47'3 6.8
2018-Jan-09 07:00N 48°15' W 004°52'3 5.7
2018-Jan-09 06:30N 48°14' W 004°56'3 6.4
2018-Jan-09 06:00N 48°13' W 005°00'4 7.1
2018-Jan-09 05:30N 48°12' W 005°05'4 7.2
2018-Jan-09 05:00N 48°10' W 005°10'4 7.7
2018-Jan-09 04:29N 48°09' W 005°16'7 7.9
2018-Jan-09 03:33N 48°06' W 005°26'  
2018-Jan-06 04:32N 39°31' W 009°50'1 8.0
2018-Jan-06 04:22N 39°30' W 009°50'3 8.2
2018-Jan-06 04:00N 39°27' W 009°50'5 8.4
2018-Jan-06 03:27N 39°22' W 009°51'4 8.5
2018-Jan-06 03:00N 39°19' W 009°51'4 8.3
2018-Jan-06 02:30N 39°14' W 009°51'4 7.9
2018-Jan-06 02:00N 39°10' W 009°51'4 7.7
2018-Jan-06 01:30N 39°07' W 009°51'4 7.3
2018-Jan-06 01:00N 39°03' W 009°51'4 8.2
2018-Jan-06 00:30N 38°59' W 009°51'4 8.1
2018-Jan-06 00:00N 38°55' W 009°51'4 7.7
2018-Jan-05 23:30N 38°51' W 009°52'4 8.0
2018-Jan-05 23:00N 38°47' W 009°52'4 8.4
2018-Jan-05 22:30N 38°43' W 009°52'4 8.7
2018-Jan-05 22:00N 38°39' W 009°51'4 8.3
2018-Jan-05 21:30N 38°35' W 009°49'4 8.6
2018-Jan-05 21:00N 38°31' W 009°47'12 9.0
2018-Jan-05 19:41N 38°19' W 009°44'2 9.5
2018-Jan-05 19:29N 38°17' W 009°43'5 9.3
2018-Jan-05 18:59N 38°13' W 009°42'6 9.6
2018-Jan-05 18:20N 38°07' W 009°40'3 9.8
2018-Jan-05 18:00N 38°03' W 009°40'5 9.5
2018-Jan-05 17:30N 37°59' W 009°38'9 8.9
2018-Jan-05 16:29N 37°50' W 009°35'4 8.7
2018-Jan-05 16:00N 37°46' W 009°34'5 9.5
2018-Jan-05 15:30N 37°41' W 009°33'218 9.1
2018-Jan-04 15:31N 35°59' W 005°32'0 9.8
2018-Jan-04 15:30N 35°59' W 005°32'5 8.8
2018-Jan-04 14:59N 36°01' W 005°26'4 7.6
2018-Jan-04 14:30N 36°04' W 005°24'  

Dump ship's entire track history